Coronado, California
Current Conditions -  °F | °C
As of 11:52 AM on Thursday 23 Oct 2014 (Local Time) from KNZY Reporting Station
Few Clouds Few Clouds  
Wind Chill: 74°   Ceiling: Unl
Heat Index: 74°   Visibility: 10mi
Dew Point: 60°   Wind: 9mph
Humidity: 62%   Direction: 330°NNW
Pressure: 29.98"   Gusts: NA
Location:  32.68°N, 117.17°W
Report Text: KNZY 231852Z 33008KT 10SM FEW010 FEW220 23/16 A2998 RMK AO2 SLP151 T02330156 $
Loading
Personal Weather Stations






























Interactive Weather Map
Tropical Storm Tracking
New forecast layout! Learn more

10-Day Weather Forecast

Advertisements
Track Severe Weather on mobile